Time;durP1;ratioP1;P1;durP2;ratioP2;P2;SDS_P1;SDS_P2;PMS_P1;PMS_P2;Temp;Humidity;BMP_temperature;BMP_pressure;BME280_temperature;BME280_humidity;BME280_pressure;Samples;Min_cycle;Max_cycle;Signal;HPM_P1;HPM_P2
2023/11/15 00:00:07;;;;;;;14.85;11.55;;;20.90;55.40;;;;;;5018880;28;20473;-67
2023/11/15 00:02:33;;;;;;;14.02;11.10;;;20.90;55.40;;;;;;5017435;28;20067;-67
2023/11/15 00:04:59;;;;;;;15.73;11.98;;;20.90;55.40;;;;;;5017544;28;20453;-67
2023/11/15 00:07:25;;;;;;;14.85;11.63;;;20.90;55.50;;;;;;5018863;28;20033;-67
2023/11/15 00:09:50;;;;;;;14.18;11.27;;;20.90;55.40;;;;;;5017822;28;20465;-67
2023/11/15 00:12:16;;;;;;;13.48;10.57;;;20.90;55.40;;;;;;5019350;28;20033;-67
2023/11/15 00:14:43;;;;;;;15.07;11.45;;;20.90;55.50;;;;;;5018881;28;20022;-69
2023/11/15 00:17:08;;;;;;;14.13;10.73;;;20.90;55.40;;;;;;5018728;28;20068;-69
2023/11/15 00:19:34;;;;;;;14.02;10.90;;;20.90;55.50;;;;;;5019861;28;20037;-69
2023/11/15 00:22:00;;;;;;;13.50;10.55;;;20.90;55.50;;;;;;5018406;28;20489;-69
2023/11/15 00:24:26;;;;;;;13.32;10.98;;;20.80;55.50;;;;;;5018878;28;20037;-69
2023/11/15 00:26:51;;;;;;;15.10;10.70;;;20.90;55.50;;;;;;5033682;28;20080;-69
2023/11/15 00:29:17;;;;;;;14.88;11.30;;;20.80;55.50;;;;;;5032320;28;20513;-69
2023/11/15 00:31:43;;;;;;;14.80;10.93;;;20.80;55.50;;;;;;5018515;28;20144;-69
2023/11/15 00:34:09;;;;;;;12.77;10.55;;;20.80;55.50;;;;;;5018626;28;20520;-69
2023/11/15 00:36:38;;;;;;;12.20;9.52;;;20.80;55.50;;;;;;5016706;28;20014;-69
2023/11/15 00:39:08;;;;;;;13.35;10.85;;;20.80;55.50;;;;;;5017700;28;20022;-69
2023/11/15 00:41:34;;;;;;;11.95;9.93;;;20.80;55.50;;;;;;5019323;28;20097;-69
2023/11/15 00:44:03;;;;;;;13.82;10.60;;;20.80;55.50;;;;;;5018034;28;20034;-69
2023/11/15 00:46:29;;;;;;;12.13;9.75;;;20.80;55.60;;;;;;5017226;28;20024;-69
2023/11/15 00:48:54;;;;;;;11.85;9.60;;;20.80;55.60;;;;;;5017954;28;20037;-69
2023/11/15 00:51:20;;;;;;;12.23;9.32;;;20.80;55.60;;;;;;5017334;28;20041;-69
2023/11/15 00:53:45;;;;;;;13.20;9.77;;;20.80;55.60;;;;;;5017058;28;20034;-69
2023/11/15 00:56:11;;;;;;;12.55;9.85;;;20.80;55.60;;;;;;5018466;28;20100;-66
2023/11/15 00:58:39;;;;;;;11.40;9.27;;;20.70;55.60;;;;;;5019007;28;20032;-66
2023/11/15 01:01:10;;;;;;;12.23;9.88;;;20.80;55.60;;;;;;5019136;28;20386;-66
2023/11/15 01:03:39;;;;;;;12.20;9.75;;;20.70;55.60;;;;;;5016468;28;20466;-66
2023/11/15 01:06:06;;;;;;;13.20;10.05;;;20.70;55.60;;;;;;5015058;28;20030;-66
2023/11/15 01:08:32;;;;;;;12.75;9.70;;;20.70;55.60;;;;;;5015269;28;20055;-66
2023/11/15 01:10:58;;;;;;;12.55;9.55;;;20.70;55.60;;;;;;5017036;28;20160;-66
2023/11/15 01:13:26;;;;;;;12.43;9.43;;;20.70;55.60;;;;;;5016569;28;20033;-66
2023/11/15 01:15:52;;;;;;;12.32;9.70;;;20.70;55.60;;;;;;5018721;28;20054;-66
2023/11/15 01:18:18;;;;;;;11.43;8.70;;;20.70;55.60;;;;;;5018545;28;20032;-66
2023/11/15 01:20:44;;;;;;;12.82;9.38;;;20.70;55.60;;;;;;5015319;28;20041;-66
2023/11/15 01:23:10;;;;;;;10.82;8.57;;;20.70;55.60;;;;;;5021217;28;20055;-66
2023/11/15 01:25:36;;;;;;;12.43;9.40;;;20.70;55.60;;;;;;5021161;28;20088;-69
2023/11/15 01:28:03;;;;;;;11.00;9.02;;;20.60;55.60;;;;;;5022706;28;20040;-69
2023/11/15 01:30:28;;;;;;;12.43;9.07;;;20.70;55.60;;;;;;5021145;28;20104;-69
2023/11/15 01:32:57;;;;;;;10.23;7.97;;;20.70;55.60;;;;;;5019946;28;20129;-69
2023/11/15 01:35:23;;;;;;;11.35;8.65;;;20.70;55.60;;;;;;5019969;28;20500;-66
2023/11/15 01:37:53;;;;;;;11.68;8.85;;;20.70;55.60;;;;;;5019541;28;20025;-65
2023/11/15 01:40:23;;;;;;;11.30;8.98;;;20.70;55.70;;;;;;5020974;28;20083;-66
2023/11/15 01:42:49;;;;;;;10.68;8.50;;;20.70;55.60;;;;;;5022425;28;20080;-66
2023/11/15 01:45:16;;;;;;;11.35;8.73;;;20.60;55.60;;;;;;5022632;28;20045;-66
2023/11/15 01:47:42;;;;;;;11.35;8.40;;;20.60;55.60;;;;;;5016947;28;20034;-66
2023/11/15 01:50:13;;;;;;;10.65;8.50;;;20.60;55.60;;;;;;5020250;28;20052;-66
2023/11/15 01:52:43;;;;;;;11.50;8.48;;;20.60;55.60;;;;;;5019545;28;20095;-66
2023/11/15 01:55:18;;;;;;;10.75;8.00;;;20.60;55.60;;;;;;5001742;28;20034;-65
2023/11/15 01:57:45;;;;;;;9.70;8.10;;;20.60;56.20;;;;;;5018617;28;20504;-66
2023/11/15 02:00:12;;;;;;;11.70;8.45;;;20.60;55.70;;;;;;5020533;28;20508;-66
2023/11/15 02:02:38;;;;;;;10.88;8.50;;;20.60;55.70;;;;;;5020280;28;20135;-66
2023/11/15 02:05:05;;;;;;;10.00;7.95;;;20.60;55.70;;;;;;5020602;28;20022;-67
2023/11/15 02:07:31;;;;;;;10.13;8.07;;;20.60;55.70;;;;;;5019454;28;20516;-67
2023/11/15 02:09:57;;;;;;;10.25;7.80;;;20.60;55.70;;;;;;5022036;28;20038;-67
2023/11/15 02:12:22;;;;;;;9.73;7.90;;;20.60;55.70;;;;;;5021204;28;20362;-67
2023/11/15 02:14:48;;;;;;;9.63;7.75;;;20.60;55.70;;;;;;5004729;28;20422;-67
2023/11/15 02:17:14;;;;;;;9.25;7.72;;;20.60;55.70;;;;;;5019425;28;20088;-67
2023/11/15 02:19:49;;;;;;;9.05;7.32;;;20.60;55.70;;;;;;5020958;28;20442;-67
2023/11/15 02:22:15;;;;;;;9.40;7.40;;;20.60;55.70;;;;;;5020701;28;20068;-67
2023/11/15 02:24:41;;;;;;;9.88;7.68;;;20.60;55.70;;;;;;5023534;28;20042;-67
2023/11/15 02:27:07;;;;;;;10.00;7.63;;;20.60;55.70;;;;;;5020575;28;20033;-67
2023/11/15 02:29:33;;;;;;;10.48;8.23;;;20.50;55.70;;;;;;5021891;28;20034;-67
2023/11/15 02:31:58;;;;;;;10.90;8.13;;;20.60;55.70;;;;;;5019345;28;20029;-67
2023/11/15 02:34:24;;;;;;;10.20;7.80;;;20.50;55.70;;;;;;5020942;28;20044;-67
2023/11/15 02:36:50;;;;;;;10.15;7.80;;;20.50;55.70;;;;;;5020426;28;20022;-66
2023/11/15 02:39:15;;;;;;;10.73;7.78;;;20.50;55.70;;;;;;5035925;28;20026;-66
2023/11/15 02:41:41;;;;;;;9.07;7.68;;;20.50;55.70;;;;;;5019768;28;20072;-67
2023/11/15 02:44:07;;;;;;;8.75;6.90;;;20.50;55.70;;;;;;5019540;28;20025;-66
2023/11/15 02:46:32;;;;;;;8.52;7.07;;;20.50;55.70;;;;;;5018582;28;20032;-67
2023/11/15 02:48:58;;;;;;;9.05;7.10;;;20.50;55.70;;;;;;5018460;28;20048;-67
2023/11/15 02:51:24;;;;;;;8.93;6.90;;;20.50;55.70;;;;;;5018730;28;20087;-67
2023/11/15 02:53:49;;;;;;;8.88;7.20;;;20.50;55.70;;;;;;5017922;28;20608;-67
2023/11/15 02:56:15;;;;;;;8.70;6.97;;;20.50;55.70;;;;;;5019213;28;20021;-67
2023/11/15 02:58:40;;;;;;;9.32;7.05;;;20.50;55.70;;;;;;5017306;28;20105;-67
2023/11/15 03:01:06;;;;;;;7.93;6.60;;;20.50;55.70;;;;;;5021562;28;20040;-67
2023/11/15 03:03:35;;;;;;;8.10;6.85;;;20.50;55.70;;;;;;5019582;28;20090;-67
2023/11/15 03:06:01;;;;;;;8.95;7.05;;;20.50;55.80;;;;;;5017264;28;20408;-67
2023/11/15 03:08:26;;;;;;;8.48;6.55;;;20.50;55.80;;;;;;5019423;28;20036;-66
2023/11/15 03:10:52;;;;;;;8.15;6.60;;;20.40;55.70;;;;;;5020758;28;20408;-67
2023/11/15 03:13:18;;;;;;;8.32;6.78;;;20.50;55.80;;;;;;5020395;28;20026;-67
2023/11/15 03:15:45;;;;;;;8.48;6.97;;;20.40;55.70;;;;;;5011485;28;20022;-66
2023/11/15 03:18:11;;;;;;;8.25;6.80;;;20.40;55.70;;;;;;5018506;28;20505;-66
2023/11/15 03:20:37;;;;;;;7.88;6.43;;;20.40;55.70;;;;;;5017838;28;20030;-66
2023/11/15 03:23:03;;;;;;;7.55;6.47;;;20.40;55.70;;;;;;5017032;28;20048;-66
2023/11/15 03:25:29;;;;;;;7.60;6.47;;;20.40;55.80;;;;;;5018947;28;20045;-66
2023/11/15 03:27:55;;;;;;;7.82;6.43;;;20.40;55.80;;;;;;5017544;28;20389;-66
2023/11/15 03:30:21;;;;;;;8.20;6.60;;;20.40;55.80;;;;;;5018574;28;20466;-66
2023/11/15 03:32:46;;;;;;;9.50;6.82;;;20.40;55.80;;;;;;5033596;28;20030;-65
2023/11/15 03:35:13;;;;;;;7.85;6.63;;;20.40;55.80;;;;;;5014858;28;20330;-66
2023/11/15 03:37:41;;;;;;;7.43;5.88;;;20.40;55.80;;;;;;5016678;28;20148;-66
2023/11/15 03:40:08;;;;;;;8.43;6.75;;;20.40;55.80;;;;;;5016568;28;20021;-66
2023/11/15 03:42:36;;;;;;;7.45;6.03;;;20.40;55.80;;;;;;5017409;28;20018;-66
2023/11/15 03:45:04;;;;;;;8.05;6.40;;;20.40;55.80;;;;;;5020316;28;20024;-67
2023/11/15 03:47:32;;;;;;;8.40;6.00;;;20.40;55.80;;;;;;5019795;28;20075;-66
2023/11/15 03:50:01;;;;;;;7.77;6.53;;;20.40;55.80;;;;;;5019274;28;20114;-66
2023/11/15 03:52:27;;;;;;;7.95;6.35;;;20.40;55.80;;;;;;5018063;28;20642;-66
2023/11/15 03:54:52;;;;;;;7.35;6.10;;;20.40;55.80;;;;;;5018523;28;20121;-65
2023/11/15 03:57:18;;;;;;;8.23;6.50;;;20.40;55.80;;;;;;5019931;28;20025;-66
2023/11/15 03:59:44;;;;;;;7.20;5.45;;;20.40;55.80;;;;;;5019476;28;20634;-67
2023/11/15 04:02:09;;;;;;;7.85;6.15;;;20.30;55.80;;;;;;5020406;28;20083;-67
2023/11/15 04:04:38;;;;;;;7.25;5.95;;;20.40;55.90;;;;;;5021158;28;20088;-67
2023/11/15 04:07:04;;;;;;;8.10;6.50;;;20.40;55.90;;;;;;5017844;28;20079;-67
2023/11/15 04:09:32;;;;;;;7.88;5.93;;;20.40;55.90;;;;;;5016654;28;20029;-67
2023/11/15 04:11:58;;;;;;;7.72;6.20;;;20.30;55.90;;;;;;5020359;28;20040;-67
2023/11/15 04:14:25;;;;;;;7.75;5.75;;;20.30;55.90;;;;;;5033529;28;20438;-67
2023/11/15 04:16:51;;;;;;;7.75;6.00;;;20.40;55.90;;;;;;5018539;28;20019;-67
2023/11/15 04:19:21;;;;;;;7.03;5.65;;;20.40;55.90;;;;;;5017071;28;20382;-67
2023/11/15 04:21:47;;;;;;;6.75;5.53;;;20.30;55.90;;;;;;5015444;28;20092;-67
2023/11/15 04:24:13;;;;;;;6.95;5.53;;;20.30;55.90;;;;;;5018791;28;20323;-67
2023/11/15 04:26:39;;;;;;;7.40;6.05;;;20.30;55.90;;;;;;5018582;28;20088;-66
2023/11/15 04:29:04;;;;;;;7.18;5.43;;;20.30;55.90;;;;;;5018809;28;20057;-66
2023/11/15 04:31:30;;;;;;;6.45;5.43;;;20.30;55.90;;;;;;5015163;28;20485;-66
2023/11/15 04:33:55;;;;;;;7.38;5.85;;;20.30;55.90;;;;;;5019466;28;20035;-66
2023/11/15 04:36:21;;;;;;;7.03;5.57;;;20.30;55.90;;;;;;5017100;28;20026;-66
2023/11/15 04:38:50;;;;;;;6.18;5.10;;;20.30;55.90;;;;;;5017026;28;20026;-66
2023/11/15 04:41:15;;;;;;;6.85;5.18;;;20.30;55.90;;;;;;5017744;28;20025;-66
2023/11/15 04:43:41;;;;;;;6.43;5.25;;;20.30;55.90;;;;;;5032600;28;20026;-66
2023/11/15 04:46:07;;;;;;;6.50;5.05;;;20.30;56.00;;;;;;5018857;28;20030;-66
2023/11/15 04:48:33;;;;;;;5.95;5.15;;;20.30;55.90;;;;;;5018351;28;20022;-66
2023/11/15 04:51:00;;;;;;;5.85;4.80;;;20.30;56.00;;;;;;5016570;28;20022;-66
2023/11/15 04:53:25;;;;;;;6.85;5.20;;;20.30;56.00;;;;;;5015597;28;20117;-66
2023/11/15 04:55:51;;;;;;;6.07;4.82;;;20.30;56.00;;;;;;5016989;28;20026;-67
2023/11/15 04:58:17;;;;;;;6.22;4.80;;;20.30;56.00;;;;;;5021706;28;20029;-67
2023/11/15 05:00:43;;;;;;;5.60;4.68;;;20.30;56.00;;;;;;5021124;28;20121;-67
2023/11/15 05:03:10;;;;;;;6.72;5.25;;;20.30;56.00;;;;;;5021893;28;20503;-67
2023/11/15 05:05:36;;;;;;;6.40;5.10;;;20.30;56.00;;;;;;5021391;28;20477;-67
2023/11/15 05:08:02;;;;;;;5.88;4.80;;;20.30;56.00;;;;;;5018721;28;20124;-67
2023/11/15 05:10:29;;;;;;;6.47;4.90;;;20.30;56.00;;;;;;5023314;28;20033;-67
2023/11/15 05:12:54;;;;;;;6.00;4.60;;;20.30;56.00;;;;;;5021388;28;20034;-67
2023/11/15 05:15:20;;;;;;;6.45;4.53;;;20.20;55.90;;;;;;5022616;28;20535;-66
2023/11/15 05:17:46;;;;;;;5.32;4.55;;;20.30;56.00;;;;;;5021590;28;20049;-67
2023/11/15 05:20:12;;;;;;;5.85;4.70;;;20.30;56.00;;;;;;5020919;28;20460;-67
2023/11/15 05:22:38;;;;;;;6.20;4.60;;;20.20;56.40;;;;;;5015950;28;20021;-67
2023/11/15 05:25:05;;;;;;;5.85;4.70;;;20.30;56.00;;;;;;5024557;28;20477;-66
2023/11/15 05:27:32;;;;;;;6.63;4.85;;;20.20;56.00;;;;;;5022015;28;20371;-67
2023/11/15 05:29:57;;;;;;;6.40;4.60;;;20.30;56.00;;;;;;5007706;28;20076;-67
2023/11/15 05:32:23;;;;;;;5.78;4.70;;;20.20;56.00;;;;;;5021458;28;20072;-67
2023/11/15 05:34:48;;;;;;;5.47;4.32;;;20.20;56.00;;;;;;5021457;28;20485;-67
2023/11/15 05:37:14;;;;;;;5.50;4.50;;;20.20;56.00;;;;;;5017512;28;20033;-67
2023/11/15 05:39:41;;;;;;;6.30;4.32;;;20.20;56.00;;;;;;5021569;28;20030;-67
2023/11/15 05:42:07;;;;;;;5.05;4.15;;;20.20;56.00;;;;;;5020106;28;20447;-67
2023/11/15 05:44:33;;;;;;;5.65;4.38;;;20.20;56.10;;;;;;5022544;28;20022;-66
2023/11/15 05:46:59;;;;;;;5.60;4.35;;;20.20;56.10;;;;;;5021496;28;20033;-67
2023/11/15 05:49:26;;;;;;;5.60;4.32;;;20.20;56.10;;;;;;5020947;28;20034;-67
2023/11/15 05:51:52;;;;;;;5.55;4.25;;;20.20;56.00;;;;;;5019853;28;20030;-67
2023/11/15 05:54:18;;;;;;;5.32;4.28;;;20.20;56.10;;;;;;5017981;28;20470;-67
2023/11/15 05:56:46;;;;;;;5.25;4.30;;;20.20;56.10;;;;;;5015104;28;20079;-67
2023/11/15 05:59:13;;;;;;;6.40;4.20;;;20.20;56.10;;;;;;5021185;28;20112;-67
2023/11/15 06:01:39;;;;;;;5.95;4.45;;;20.20;56.10;;;;;;5001325;28;20037;-67
2023/11/15 06:04:05;;;;;;;5.60;4.10;;;20.20;56.10;;;;;;5021447;28;20112;-67
2023/11/15 06:06:30;;;;;;;6.35;4.60;;;20.20;56.10;;;;;;5022008;28;20105;-67
2023/11/15 06:08:56;;;;;;;5.15;4.10;;;20.20;56.20;;;;;;5020844;28;20068;-67
2023/11/15 06:11:22;;;;;;;5.22;4.00;;;20.20;56.10;;;;;;5021277;28;20033;-67
2023/11/15 06:13:48;;;;;;;4.80;3.78;;;20.20;56.10;;;;;;5019117;28;20465;-67
2023/11/15 06:16:14;;;;;;;6.35;4.55;;;20.20;56.10;;;;;;5021230;28;20025;-69
2023/11/15 06:18:40;;;;;;;5.38;3.90;;;20.20;56.20;;;;;;5020883;28;20405;-69
2023/11/15 06:21:06;;;;;;;5.22;4.13;;;20.20;56.20;;;;;;5018844;28;20022;-69
2023/11/15 06:23:34;;;;;;;4.80;4.00;;;20.20;56.20;;;;;;5018598;28;20145;-69
2023/11/15 06:25:59;;;;;;;4.40;3.70;;;20.20;56.20;;;;;;5020549;28;20071;-68
2023/11/15 06:28:25;;;;;;;5.03;3.97;;;20.20;56.20;;;;;;5019183;28;20462;-69
2023/11/15 06:30:51;;;;;;;5.70;4.07;;;20.20;56.20;;;;;;5019909;28;20021;-69
2023/11/15 06:33:17;;;;;;;4.90;3.45;;;20.20;56.20;;;;;;5000737;28;20030;-69
2023/11/15 06:35:44;;;;;;;5.15;3.90;;;20.20;56.20;;;;;;5018014;28;20099;-69
2023/11/15 06:38:10;;;;;;;4.55;3.60;;;20.20;56.20;;;;;;5016500;28;20130;-69
2023/11/15 06:40:35;;;;;;;5.20;3.80;;;20.20;56.20;;;;;;5020626;28;20359;-69
2023/11/15 06:43:01;;;;;;;5.10;3.90;;;20.20;56.20;;;;;;5020360;28;20394;-69
2023/11/15 06:45:28;;;;;;;5.75;3.80;;;20.10;56.20;;;;;;5019297;28;20029;-65
2023/11/15 06:47:54;;;;;;;4.72;3.55;;;20.20;56.20;;;;;;5019472;28;20025;-65
2023/11/15 06:50:22;;;;;;;4.75;3.72;;;20.20;56.20;;;;;;5019030;28;20075;-65
2023/11/15 06:52:48;;;;;;;4.85;3.97;;;20.20;56.20;;;;;;5014052;28;20025;-65
2023/11/15 06:55:15;;;;;;;5.38;3.97;;;20.20;56.20;;;;;;5034648;28;20041;-65
2023/11/15 06:57:41;;;;;;;4.65;3.40;;;20.20;56.30;;;;;;5021423;28;20438;-66
2023/11/15 07:00:08;;;;;;;5.20;3.90;;;20.20;56.20;;;;;;5020013;28;20075;-66
2023/11/15 07:02:35;;;;;;;4.63;3.50;;;20.20;56.20;;;;;;5018711;28;20096;-66
2023/11/15 07:05:01;;;;;;;4.90;3.70;;;20.10;56.20;;;;;;5021073;28;20034;-65
2023/11/15 07:07:27;;;;;;;5.00;3.70;;;20.10;56.70;;;;;;5019861;28;20442;-65
2023/11/15 07:09:54;;;;;;;5.22;3.70;;;20.10;56.20;;;;;;5018037;28;20029;-65
2023/11/15 07:12:20;;;;;;;4.57;3.50;;;20.10;56.20;;;;;;5019839;28;20148;-66
2023/11/15 07:14:47;;;;;;;4.35;3.47;;;20.10;56.20;;;;;;5017562;28;20120;-65
2023/11/15 07:17:12;;;;;;;4.45;3.60;;;20.10;56.20;;;;;;5019679;28;20018;-67
2023/11/15 07:19:38;;;;;;;4.72;3.63;;;20.10;56.30;;;;;;5018874;28;20362;-66
2023/11/15 07:22:04;;;;;;;4.32;3.22;;;20.10;56.60;;;;;;5017438;28;20021;-65
2023/11/15 07:24:30;;;;;;;5.15;4.10;;;20.10;56.90;;;;;;5017916;28;20045;-65
2023/11/15 07:26:56;;;;;;;4.75;3.30;;;20.10;56.90;;;;;;5001212;28;20030;-67
2023/11/15 07:29:22;;;;;;;4.45;3.10;;;20.10;56.90;;;;;;5018053;28;20492;-67
2023/11/15 07:31:52;;;;;;;4.30;3.40;;;20.10;56.90;;;;;;5016892;28;20029;-67
2023/11/15 07:34:22;;;;;;;4.47;3.70;;;20.10;56.80;;;;;;5020101;28;20521;-66
2023/11/15 07:36:48;;;;;;;4.90;3.70;;;20.10;56.80;;;;;;5019008;28;20029;-67
2023/11/15 07:39:14;;;;;;;4.68;3.58;;;20.10;56.70;;;;;;5016350;28;20061;-67
2023/11/15 07:41:40;;;;;;;5.15;3.60;;;20.10;56.70;;;;;;5020660;28;20032;-66
2023/11/15 07:44:05;;;;;;;4.38;3.40;;;20.10;56.70;;;;;;5019047;28;20091;-67
2023/11/15 07:46:31;;;;;;;5.00;3.50;;;20.10;56.70;;;;;;5016942;28;20034;-66
2023/11/15 07:48:58;;;;;;;4.68;3.60;;;20.10;56.70;;;;;;5018656;28;20021;-67
2023/11/15 07:51:24;;;;;;;4.60;3.30;;;20.10;56.70;;;;;;5019704;28;20492;-67
2023/11/15 07:53:50;;;;;;;4.97;3.50;;;20.10;57.20;;;;;;5013605;28;20021;-67
2023/11/15 07:56:19;;;;;;;4.70;3.47;;;20.10;56.60;;;;;;5018212;28;20113;-69
2023/11/15 07:58:50;;;;;;;4.22;3.20;;;20.10;56.60;;;;;;5010461;28;20022;-69
2023/11/15 08:01:16;;;;;;;4.15;3.10;;;20.10;56.70;;;;;;5018845;28;20484;-70
2023/11/15 08:03:41;;;;;;;3.83;3.00;;;20.10;56.60;;;;;;5018700;28;20026;-70
2023/11/15 08:06:08;;;;;;;4.50;3.22;;;20.10;56.70;;;;;;5017180;28;20040;-70
2023/11/15 08:08:35;;;;;;;3.92;3.03;;;20.10;56.70;;;;;;5017171;28;20095;-69
2023/11/15 08:11:03;;;;;;;4.55;3.35;;;20.10;56.70;;;;;;5018991;28;20022;-70
2023/11/15 08:13:29;;;;;;;4.50;3.08;;;20.10;56.70;;;;;;5000272;28;20080;-70
2023/11/15 08:15:56;;;;;;;3.63;2.60;;;20.10;56.70;;;;;;5015578;28;20057;-70
2023/11/15 08:18:22;;;;;;;4.07;2.90;;;20.00;56.60;;;;;;5018231;28;20018;-70
2023/11/15 08:20:48;;;;;;;3.92;2.90;;;20.10;56.70;;;;;;5016349;28;20019;-70
2023/11/15 08:23:13;;;;;;;3.83;3.00;;;20.10;56.70;;;;;;5020974;28;20029;-70
2023/11/15 08:25:47;;;;;;;4.43;3.10;;;20.10;56.70;;;;;;5000343;28;20110;-66
2023/11/15 08:28:13;;;;;;;3.35;2.80;;;20.10;56.70;;;;;;5017602;28;20456;-69
2023/11/15 08:30:39;;;;;;;4.22;3.08;;;20.10;56.70;;;;;;5020105;28;20121;-69
2023/11/15 08:33:05;;;;;;;3.70;2.65;;;20.10;56.80;;;;;;5020549;28;20417;-69
2023/11/15 08:35:32;;;;;;;4.28;2.90;;;20.10;57.10;;;;;;5023098;28;20100;-68
2023/11/15 08:37:58;;;;;;;4.10;3.03;;;20.10;57.20;;;;;;5023853;28;20477;-70
2023/11/15 08:40:24;;;;;;;3.85;2.70;;;20.10;57.40;;;;;;5021567;28;20022;-71
2023/11/15 08:42:51;;;;;;;4.35;2.88;;;20.10;57.20;;;;;;5024398;28;20474;-69
2023/11/15 08:45:18;;;;;;;4.22;2.75;;;20.10;57.20;;;;;;5005167;28;20045;-68
2023/11/15 08:47:44;;;;;;;3.20;2.55;;;20.20;57.30;;;;;;5025125;28;20466;-67
2023/11/15 08:50:10;;;;;;;3.72;2.60;;;20.20;57.40;;;;;;5006455;28;20211;-70
2023/11/15 08:52:39;;;;;;;4.57;3.25;;;20.20;57.80;;;;;;5018979;28;20026;-72
2023/11/15 08:55:06;;;;;;;4.03;2.70;;;20.20;57.30;;;;;;5003612;28;20037;-71
2023/11/15 08:57:32;;;;;;;3.65;2.72;;;20.30;57.50;;;;;;5021010;28;20041;-69
2023/11/15 08:59:57;;;;;;;3.75;2.70;;;20.30;57.80;;;;;;5022123;28;20022;-69
2023/11/15 09:02:23;;;;;;;4.05;2.80;;;20.30;57.70;;;;;;5022867;28;20025;-68
2023/11/15 09:04:52;;;;;;;4.07;2.60;;;20.30;57.50;;;;;;5023346;28;20052;-68
2023/11/15 09:07:20;;;;;;;5.23;2.47;;;20.40;57.50;;;;;;5023058;28;20912;-67
2023/11/15 09:09:46;;;;;;;3.75;2.70;;;20.40;58.00;;;;;;5020584;28;20257;-67
2023/11/15 09:12:13;;;;;;;4.05;2.58;;;20.40;57.50;;;;;;5003312;28;20030;-68
2023/11/15 09:14:39;;;;;;;4.40;2.67;;;20.40;57.40;;;;;;5021754;28;20064;-69
2023/11/15 09:17:12;;;;;;;3.58;2.70;;;20.40;57.40;;;;;;5023309;28;20129;-68
2023/11/15 09:19:46;;;;;;;3.05;2.35;;;20.40;57.40;;;;;;5021514;28;20033;-67
2023/11/15 09:22:19;;;;;;;3.17;2.13;;;20.50;57.30;;;;;;5016438;28;20035;-68
2023/11/15 09:24:46;;;;;;;3.20;2.20;;;20.50;57.30;;;;;;5019788;28;20041;-68
2023/11/15 09:27:12;;;;;;;2.75;2.00;;;20.50;57.30;;;;;;5036288;28;20037;-68
2023/11/15 09:29:38;;;;;;;3.42;2.40;;;20.60;57.20;;;;;;5022177;28;20061;-68
2023/11/15 09:32:04;;;;;;;3.97;2.40;;;20.60;57.10;;;;;;5020714;28;20026;-68
2023/11/15 09:34:30;;;;;;;3.53;2.40;;;20.60;57.10;;;;;;5021350;28;20017;-68
2023/11/15 09:36:56;;;;;;;3.80;2.17;;;20.60;57.00;;;;;;5035806;28;20028;-68
2023/11/15 09:39:23;;;;;;;3.30;2.10;;;20.70;57.00;;;;;;5021345;28;20117;-67
2023/11/15 09:41:55;;;;;;;3.47;2.10;;;20.70;57.00;;;;;;5020335;28;20033;-67
2023/11/15 09:44:23;;;;;;;3.35;2.50;;;20.70;57.00;;;;;;5021629;28;20545;-68
2023/11/15 09:46:53;;;;;;;3.15;2.25;;;20.70;56.90;;;;;;5018877;28;20037;-67
2023/11/15 09:49:22;;;;;;;4.25;2.20;;;20.70;56.90;;;;;;5019602;28;20541;-66
2023/11/15 09:51:48;;;;;;;3.15;2.00;;;20.80;57.10;;;;;;5019761;28;20092;-67
2023/11/15 09:54:15;;;;;;;4.30;2.20;;;20.80;57.00;;;;;;5016524;28;20828;-67
2023/11/15 09:56:44;;;;;;;2.90;2.17;;;20.80;57.00;;;;;;5016728;28;20076;-67
2023/11/15 09:59:10;;;;;;;4.05;2.17;;;20.80;57.00;;;;;;5020293;28;20449;-67
2023/11/15 10:01:42;;;;;;;3.17;2.10;;;20.90;56.90;;;;;;5033893;28;20118;-67
2023/11/15 10:04:26;;;;;;;3.50;2.30;;;20.90;56.80;;;;;;5021087;28;20584;-67
2023/11/15 10:06:52;;;;;;;3.40;2.15;;;20.90;56.70;;;;;;5020031;28;20036;-66
2023/11/15 10:09:38;;;;;;;3.83;1.95;;;20.90;56.90;;;;;;5018580;28;20124;-72
2023/11/15 10:12:08;;;;;;;2.97;2.17;;;20.90;56.80;;;;;;5020106;28;20520;-65
2023/11/15 10:14:37;;;;;;;2.88;2.10;;;20.90;56.80;;;;;;5019601;28;20366;-68
2023/11/15 10:17:03;;;;;;;3.00;2.00;;;21.00;56.90;;;;;;5019054;28;20037;-69
2023/11/15 10:19:31;;;;;;;2.72;1.95;;;21.00;56.90;;;;;;5020285;28;20548;-69
2023/11/15 10:22:01;;;;;;;2.88;2.00;;;21.00;56.70;;;;;;5020050;28;20081;-68
2023/11/15 10:24:28;;;;;;;3.08;2.00;;;21.00;56.80;;;;;;4977812;28;1098613;-70
2023/11/15 10:26:55;;;;;;;3.85;2.20;;;21.00;57.00;;;;;;5020850;28;20022;-67
2023/11/15 10:29:21;;;;;;;3.05;1.88;;;21.00;56.80;;;;;;5020872;28;20053;-66
2023/11/15 10:31:53;;;;;;;3.70;1.92;;;21.10;56.90;;;;;;5019961;28;20034;-65
2023/11/15 10:34:34;;;;;;;2.78;1.85;;;21.10;56.90;;;;;;5020834;28;20025;-66
2023/11/15 10:37:09;;;;;;;3.72;2.00;;;21.10;56.70;;;;;;5021340;28;20080;-69
2023/11/15 10:39:43;;;;;;;2.90;1.90;;;21.10;57.00;;;;;;5014009;28;20046;-67
2023/11/15 10:42:14;;;;;;;3.35;2.08;;;21.10;56.70;;;;;;5015250;28;20022;-66
2023/11/15 10:44:42;;;;;;;3.20;1.90;;;21.20;56.70;;;;;;5019051;28;20022;-65
2023/11/15 10:47:08;;;;;;;3.22;2.00;;;21.20;56.60;;;;;;5017171;28;20369;-67
2023/11/15 10:49:42;;;;;;;2.60;1.67;;;21.20;56.40;;;;;;5003300;28;20367;-66
2023/11/15 10:52:08;;;;;;;2.65;1.70;;;21.20;56.30;;;;;;5019176;28;20081;-66
2023/11/15 10:54:35;;;;;;;2.90;1.80;;;21.20;56.30;;;;;;5018540;28;20513;-66
2023/11/15 10:57:03;;;;;;;3.13;2.00;;;21.20;56.20;;;;;;5016078;28;20462;-68
2023/11/15 10:59:33;;;;;;;4.13;1.75;;;21.20;56.20;;;;;;5019104;28;20022;-67
2023/11/15 11:02:02;;;;;;;2.90;1.95;;;21.20;56.20;;;;;;5002885;28;20049;-69
2023/11/15 11:04:31;;;;;;;3.17;2.10;;;21.20;56.20;;;;;;5020590;28;20115;-69
2023/11/15 11:07:04;;;;;;;3.10;2.07;;;21.20;56.10;;;;;;5017789;28;20046;-70
2023/11/15 11:09:50;;;;;;;2.60;1.67;;;21.30;56.10;;;;;;5021206;28;20264;-67
2023/11/15 11:12:18;;;;;;;2.78;2.08;;;21.20;56.00;;;;;;5021716;28;20104;-67
2023/11/15 11:14:46;;;;;;;3.35;2.00;;;21.30;56.10;;;;;;5035441;28;20148;-67
2023/11/15 11:17:34;;;;;;;3.30;2.20;;;21.30;56.00;;;;;;5020018;28;20445;-67
2023/11/15 11:20:01;;;;;;;3.10;2.10;;;21.30;56.00;;;;;;5019156;28;20022;-68
2023/11/15 11:22:27;;;;;;;2.80;1.90;;;21.30;55.90;;;;;;5020742;28;20029;-68
2023/11/15 11:25:06;;;;;;;3.42;1.95;;;21.30;56.10;;;;;;5019023;28;20897;-68
2023/11/15 11:27:42;;;;;;;2.72;1.67;;;21.30;56.10;;;;;;5020148;28;20093;-68
2023/11/15 11:30:11;;;;;;;3.15;1.65;;;21.30;56.00;;;;;;5020996;28;20108;-68
2023/11/15 11:32:39;;;;;;;2.83;1.80;;;21.30;56.00;;;;;;5019159;28;20486;-69
2023/11/15 11:35:05;;;;;;;2.22;1.55;;;21.30;55.90;;;;;;5021815;28;20032;-68
2023/11/15 11:37:43;;;;;;;2.90;1.98;;;21.30;55.90;;;;;;5020790;28;20044;-68
2023/11/15 11:40:09;;;;;;;2.58;1.75;;;21.30;55.90;;;;;;5016274;28;20075;-67
2023/11/15 11:42:36;;;;;;;2.42;1.70;;;21.30;55.90;;;;;;5002727;28;20855;-67
2023/11/15 11:45:03;;;;;;;2.33;1.52;;;21.30;55.90;;;;;;5020511;28;20461;-67
2023/11/15 11:47:29;;;;;;;2.30;1.63;;;21.30;55.80;;;;;;5020236;28;20529;-69
2023/11/15 11:49:56;;;;;;;2.67;2.00;;;21.30;55.80;;;;;;5019473;28;20100;-68
2023/11/15 11:52:22;;;;;;;2.50;1.70;;;21.30;55.80;;;;;;5020021;28;20362;-68
2023/11/15 11:54:52;;;;;;;3.88;2.10;;;21.30;55.80;;;;;;5019076;28;20108;-69
2023/11/15 11:57:24;;;;;;;3.38;1.90;;;21.40;55.80;;;;;;5000180;28;20105;-69
2023/11/15 12:00:26;;;;;;;2.97;2.03;;;21.40;55.70;;;;;;5032830;28;20037;-68
2023/11/15 12:02:54;;;;;;;3.05;1.80;;;21.40;55.70;;;;;;5016622;28;20027;-68
2023/11/15 12:05:21;;;;;;;3.40;2.10;;;21.40;55.70;;;;;;5017646;28;20435;-67
2023/11/15 12:07:49;;;;;;;4.43;2.20;;;21.40;55.70;;;;;;5016879;28;20212;-74
2023/11/15 12:10:16;;;;;;;2.78;1.73;;;21.40;55.70;;;;;;5016206;28;20162;-73
2023/11/15 12:12:57;;;;;;;2.83;1.77;;;21.40;55.80;;;;;;5016392;28;20092;-71
2023/11/15 12:15:24;;;;;;;2.47;1.70;;;21.40;55.90;;;;;;5017108;28;20056;-72
2023/11/15 12:17:51;;;;;;;2.53;1.60;;;21.40;55.90;;;;;;5019043;28;20018;-72
2023/11/15 12:20:26;;;;;;;2.55;1.70;;;21.40;56.10;;;;;;5003048;28;20034;-72
2023/11/15 12:23:05;;;;;;;2.22;1.45;;;21.40;56.00;;;;;;5018169;28;20477;-74
2023/11/15 12:25:32;;;;;;;2.78;1.92;;;21.40;56.00;;;;;;5010186;28;20030;-72
2023/11/15 12:28:01;;;;;;;3.17;1.75;;;21.40;56.30;;;;;;5018847;28;20038;-71
2023/11/15 12:30:33;;;;;;;2.40;1.77;;;21.40;56.10;;;;;;5018309;28;20110;-71
2023/11/15 12:33:02;;;;;;;3.00;1.65;;;21.50;56.10;;;;;;5017630;28;20045;-72
2023/11/15 12:35:33;;;;;;;2.80;1.60;;;21.50;56.50;;;;;;5020844;28;20496;-72
2023/11/15 12:38:06;;;;;;;2.58;1.88;;;21.50;56.00;;;;;;5019492;28;20030;-72
2023/11/15 12:40:36;;;;;;;3.55;2.08;;;21.50;55.90;;;;;;5016724;28;20028;-71
2023/11/15 12:43:22;;;;;;;4.00;1.88;;;21.50;55.80;;;;;;5019276;28;20381;-70